Time,TemperatureF,DewpointF,PressureIn,WindDirection,WindDirectionDegrees,WindSpeedMPH,WindSpeedGustMPH,Humidity,HourlyPrecipIn,Conditions,Clouds,dailyrainin,SoftwareType,DateUTC
2013-07-24 00:08:00,75.5,67.0,29.65,WNW,296,2.0,5.0,75,0.00,,,0.00,weatherlink.com 1.10,2013-07-24 04:08:00,
2013-07-24 00:23:00,75.1,67.0,29.65,WNW,286,2.0,5.0,75,0.00,,,0.00,weatherlink.com 1.10,2013-07-24 04:23:00,
2013-07-24 00:38:00,74.2,66.0,29.64,West,280,0.0,1.0,76,0.00,,,0.00,weatherlink.com 1.10,2013-07-24 04:38:00,
2013-07-24 00:53:00,73.0,65.0,29.62,ENE,63,0.0,3.0,77,0.00,,,0.00,weatherlink.com 1.10,2013-07-24 04:53:00,
2013-07-24 01:08:00,72.2,65.0,29.62,West,269,0.0,2.0,79,0.00,,,0.00,weatherlink.com 1.10,2013-07-24 05:08:00,
2013-07-24 01:23:00,71.7,66.0,29.63,West,269,0.0,0.0,81,0.00,,,0.00,weatherlink.com 1.10,2013-07-24 05:23:00,
2013-07-24 01:38:00,71.2,66.0,29.64,WNW,287,2.0,3.0,83,0.00,,,0.00,weatherlink.com 1.10,2013-07-24 05:38:00,
2013-07-24 01:53:00,70.8,65.0,29.63,WNW,287,0.0,2.0,83,0.00,,,0.00,weatherlink.com 1.10,2013-07-24 05:53:00,
2013-07-24 02:08:00,70.6,65.0,29.64,West,278,0.0,3.0,83,0.00,,,0.00,weatherlink.com 1.10,2013-07-24 06:08:00,
2013-07-24 02:23:00,70.4,66.0,29.64,West,278,1.0,2.0,85,0.00,,,0.00,weatherlink.com 1.10,2013-07-24 06:23:00,
2013-07-24 02:38:00,70.3,66.0,29.63,West,278,0.0,1.0,85,0.00,,,0.00,weatherlink.com 1.10,2013-07-24 06:38:00,
2013-07-24 02:53:00,69.8,66.0,29.64,West,278,0.0,0.0,87,0.00,,,0.00,weatherlink.com 1.10,2013-07-24 06:53:00,
2013-07-24 03:08:00,69.2,65.0,29.64,West,278,0.0,0.0,87,0.00,,,0.00,weatherlink.com 1.10,2013-07-24 07:08:00,
2013-07-24 03:24:00,68.7,65.0,29.63,West,278,0.0,0.0,88,0.00,,,0.00,weatherlink.com 1.10,2013-07-24 07:24:00,
2013-07-24 03:39:00,68.1,65.0,29.63,West,278,0.0,0.0,90,0.00,,,0.00,weatherlink.com 1.10,2013-07-24 07:39:00,
2013-07-24 03:54:00,67.7,65.0,29.63,West,278,0.0,0.0,91,0.00,,,0.00,weatherlink.com 1.10,2013-07-24 07:54:00,
2013-07-24 04:09:00,67.3,65.0,29.63,West,278,0.0,1.0,92,0.00,,,0.00,weatherlink.com 1.10,2013-07-24 08:09:00,
2013-07-24 04:24:00,66.9,65.0,29.63,West,278,0.0,1.0,93,0.00,,,0.00,weatherlink.com 1.10,2013-07-24 08:24:00,
2013-07-24 04:39:00,66.5,65.0,29.64,West,278,0.0,2.0,93,0.00,,,0.00,weatherlink.com 1.10,2013-07-24 08:39:00,
2013-07-24 04:54:00,66.3,65.0,29.63,West,278,0.0,0.0,94,0.00,,,0.00,weatherlink.com 1.10,2013-07-24 08:54:00,
2013-07-24 05:09:00,66.2,65.0,29.64,West,278,0.0,1.0,94,0.00,,,0.00,weatherlink.com 1.10,2013-07-24 09:09:00,
2013-07-24 05:24:00,66.1,65.0,29.64,West,278,0.0,0.0,95,0.00,,,0.00,weatherlink.com 1.10,2013-07-24 09:24:00,
2013-07-24 05:39:00,66.1,65.0,29.65,West,278,0.0,0.0,95,0.00,,,0.00,weatherlink.com 1.10,2013-07-24 09:39:00,
2013-07-24 05:54:00,65.9,65.0,29.66,West,278,0.0,0.0,95,0.00,,,0.00,weatherlink.com 1.10,2013-07-24 09:54:00,
2013-07-24 06:09:00,65.9,65.0,29.66,West,278,0.0,0.0,95,0.00,,,0.00,weatherlink.com 1.10,2013-07-24 10:09:00,
2013-07-24 06:24:00,66.1,65.0,29.67,West,278,0.0,1.0,96,0.00,,,0.00,weatherlink.com 1.10,2013-07-24 10:24:00,
2013-07-24 06:39:00,66.6,65.0,29.67,West,278,0.0,0.0,95,0.00,,,0.00,weatherlink.com 1.10,2013-07-24 10:39:00,
2013-07-24 06:54:00,67.0,66.0,29.68,West,278,0.0,0.0,95,0.00,,,0.00,weatherlink.com 1.10,2013-07-24 10:54:00,
2013-07-24 07:09:00,67.6,66.0,29.68,West,278,0.0,0.0,95,0.00,,,0.00,weatherlink.com 1.10,2013-07-24 11:09:00,
2013-07-24 07:24:00,68.3,66.0,29.69,West,278,0.0,0.0,93,0.00,,,0.00,weatherlink.com 1.10,2013-07-24 11:24:00,
2013-07-24 07:39:00,68.8,66.0,29.69,West,278,0.0,1.0,91,0.00,,,0.00,weatherlink.com 1.10,2013-07-24 11:39:00,
2013-07-24 07:54:00,69.2,67.0,29.70,WNW,287,1.0,3.0,91,0.00,,,0.00,weatherlink.com 1.10,2013-07-24 11:54:00,
2013-07-24 08:09:00,69.4,67.0,29.70,West,271,3.0,5.0,91,0.00,,,0.00,weatherlink.com 1.10,2013-07-24 12:09:00,
2013-07-24 08:24:00,69.8,67.0,29.71,NW,305,0.0,2.0,90,0.00,,,0.00,weatherlink.com 1.10,2013-07-24 12:24:00,
2013-07-24 08:39:00,71.2,68.0,29.72,NW,313,1.0,6.0,88,0.00,,,0.00,weatherlink.com 1.10,2013-07-24 12:39:00,
2013-07-24 08:54:00,72.3,67.0,29.72,WNW,282,3.0,7.0,83,0.00,,,0.00,weatherlink.com 1.10,2013-07-24 12:54:00,
2013-07-24 09:09:00,72.8,67.0,29.72,SSE,153,0.0,4.0,82,0.00,,,0.00,weatherlink.com 1.10,2013-07-24 13:09:00,
2013-07-24 09:24:00,72.7,67.0,29.72,SE,142,0.0,3.0,82,0.00,,,0.00,weatherlink.com 1.10,2013-07-24 13:24:00,
2013-07-24 09:39:00,73.4,67.0,29.71,NW,309,0.0,2.0,80,0.00,,,0.00,weatherlink.com 1.10,2013-07-24 13:39:00,
2013-07-24 09:54:00,75.4,70.0,29.72,WNW,290,4.0,4.0,82,0.00,,,0.00,weatherlink.com 1.10,2013-07-24 13:54:00,
2013-07-24 10:09:00,78.1,68.0,29.73,SW,221,2.0,9.0,71,0.00,,,0.00,weatherlink.com 1.10,2013-07-24 14:09:00,
2013-07-24 10:24:00,78.9,68.0,29.75,West,270,6.0,9.0,70,0.00,,,0.00,weatherlink.com 1.10,2013-07-24 14:24:00,
2013-07-24 10:39:00,77.8,68.0,29.75,WNW,299,3.0,9.0,71,0.00,,,0.00,weatherlink.com 1.10,2013-07-24 14:39:00,
2013-07-24 10:54:00,78.6,68.0,29.75,WNW,293,5.0,8.0,71,0.00,,,0.00,weatherlink.com 1.10,2013-07-24 14:54:00,
2013-07-24 11:09:00,79.9,68.0,29.75,West,263,0.0,11.0,67,0.00,,,0.00,weatherlink.com 1.10,2013-07-24 15:09:00,
2013-07-24 11:24:00,80.5,68.0,29.74,SE,128,2.0,6.0,65,0.00,,,0.00,weatherlink.com 1.10,2013-07-24 15:24:00,
2013-07-24 11:39:00,80.0,67.0,29.75,WSW,254,3.0,9.0,64,0.00,,,0.00,weatherlink.com 1.10,2013-07-24 15:39:00,
2013-07-24 11:54:00,80.0,67.0,29.75,West,269,4.0,10.0,64,0.00,,,0.00,weatherlink.com 1.10,2013-07-24 15:54:00,
2013-07-24 12:09:00,80.5,67.0,29.76,WNW,293,4.0,8.0,63,0.00,,,0.00,weatherlink.com 1.10,2013-07-24 16:09:00,
2013-07-24 12:25:00,81.1,66.0,29.75,West,281,0.0,9.0,60,0.00,,,0.00,weatherlink.com 1.10,2013-07-24 16:25:00,
2013-07-24 12:40:00,80.1,65.0,29.75,West,274,4.0,10.0,60,0.00,,,0.00,weatherlink.com 1.10,2013-07-24 16:40:00,
2013-07-24 12:55:00,80.8,65.0,29.75,WNW,292,3.0,8.0,59,0.00,,,0.00,weatherlink.com 1.10,2013-07-24 16:55:00,
2013-07-24 13:10:00,81.5,64.0,29.76,West,278,3.0,12.0,56,0.00,,,0.00,weatherlink.com 1.10,2013-07-24 17:10:00,
2013-07-24 13:25:00,80.5,63.0,29.76,WNW,286,1.0,11.0,56,0.00,,,0.00,weatherlink.com 1.10,2013-07-24 17:25:00,
2013-07-24 13:40:00,80.8,62.0,29.75,West,274,3.0,12.0,53,0.00,,,0.00,weatherlink.com 1.10,2013-07-24 17:40:00,
2013-07-24 13:55:00,81.2,63.0,29.76,West,280,8.0,12.0,55,0.00,,,0.00,weatherlink.com 1.10,2013-07-24 17:55:00,
2013-07-24 14:10:00,81.6,62.0,29.76,West,265,7.0,10.0,52,0.00,,,0.00,weatherlink.com 1.10,2013-07-24 18:10:00,
2013-07-24 14:25:00,81.7,62.0,29.76,East,97,2.0,11.0,51,0.00,,,0.00,weatherlink.com 1.10,2013-07-24 18:25:00,
2013-07-24 14:40:00,81.8,62.0,29.76,West,264,4.0,12.0,51,0.00,,,0.00,weatherlink.com 1.10,2013-07-24 18:40:00,
2013-07-24 14:55:00,81.2,62.0,29.76,West,273,2.0,8.0,52,0.00,,,0.00,weatherlink.com 1.10,2013-07-24 18:55:00,
2013-07-24 15:10:00,81.7,62.0,29.76,West,276,0.0,7.0,52,0.00,,,0.00,weatherlink.com 1.10,2013-07-24 19:10:00,
2013-07-24 15:25:00,82.3,61.0,29.76,SW,225,1.0,11.0,49,0.00,,,0.00,weatherlink.com 1.10,2013-07-24 19:25:00,
2013-07-24 15:40:00,81.4,61.0,29.76,NW,316,4.0,9.0,51,0.00,,,0.00,weatherlink.com 1.10,2013-07-24 19:40:00,
2013-07-24 15:55:00,82.2,63.0,29.76,WNW,284,4.0,10.0,52,0.00,,,0.00,weatherlink.com 1.10,2013-07-24 19:55:00,
2013-07-24 16:10:00,81.8,61.0,29.76,WNW,292,5.0,8.0,50,0.00,,,0.00,weatherlink.com 1.10,2013-07-24 20:10:00,
2013-07-24 16:25:00,81.8,61.0,29.76,West,277,6.0,12.0,50,0.00,,,0.00,weatherlink.com 1.10,2013-07-24 20:25:00,
2013-07-24 16:40:00,81.5,61.0,29.76,West,280,6.0,11.0,50,0.00,,,0.00,weatherlink.com 1.10,2013-07-24 20:40:00,
2013-07-24 16:55:00,81.1,61.0,29.76,West,271,0.0,10.0,51,0.00,,,0.00,weatherlink.com 1.10,2013-07-24 20:55:00,
2013-07-24 17:10:00,80.8,60.0,29.76,West,277,3.0,10.0,50,0.00,,,0.00,weatherlink.com 1.10,2013-07-24 21:10:00,
2013-07-24 17:25:00,80.6,61.0,29.76,WNW,298,3.0,7.0,51,0.00,,,0.00,weatherlink.com 1.10,2013-07-24 21:25:00,
2013-07-24 17:40:00,80.9,60.0,29.76,ESE,107,2.0,9.0,50,0.00,,,0.00,weatherlink.com 1.10,2013-07-24 21:40:00,
2013-07-24 17:55:00,81.1,60.0,29.76,NW,326,2.0,6.0,48,0.00,,,0.00,weatherlink.com 1.10,2013-07-24 21:55:00,
2013-07-24 18:10:00,80.8,59.0,29.76,West,276,1.0,9.0,48,0.00,,,0.00,weatherlink.com 1.10,2013-07-24 22:10:00,
2013-07-24 18:25:00,80.4,61.0,29.77,WNW,297,0.0,3.0,51,0.00,,,0.00,weatherlink.com 1.10,2013-07-24 22:25:00,
2013-07-24 18:55:00,79.1,59.0,29.77,West,281,3.0,4.0,50,0.00,,,0.00,weatherlink.com 1.10,2013-07-24 22:55:00,
2013-07-24 19:10:00,78.6,59.0,29.77,WNW,285,3.0,3.0,51,0.00,,,0.00,weatherlink.com 1.10,2013-07-24 23:10:00,
2013-07-24 19:25:00,78.6,58.0,29.78,West,277,2.0,5.0,50,0.00,,,0.00,weatherlink.com 1.10,2013-07-24 23:25:00,
2013-07-24 19:40:00,78.1,58.0,29.78,NNE,28,0.0,4.0,51,0.00,,,0.00,weatherlink.com 1.10,2013-07-24 23:40:00,
2013-07-24 19:55:00,77.3,58.0,29.79,West,267,0.0,2.0,51,0.00,,,0.00,weatherlink.com 1.10,2013-07-24 23:55:00,
2013-07-24 20:10:00,76.2,58.0,29.79,WSW,257,0.0,4.0,53,0.00,,,0.00,weatherlink.com 1.10,2013-07-25 00:10:00,
2013-07-24 20:25:00,74.5,57.0,29.80,West,281,0.0,4.0,55,0.00,,,0.00,weatherlink.com 1.10,2013-07-25 00:25:00,
2013-07-24 20:40:00,73.0,57.0,29.81,West,273,1.0,3.0,58,0.00,,,0.00,weatherlink.com 1.10,2013-07-25 00:40:00,
2013-07-24 20:55:00,71.8,58.0,29.81,WNW,292,0.0,2.0,62,0.00,,,0.00,weatherlink.com 1.10,2013-07-25 00:55:00,
2013-07-24 21:10:00,70.8,57.0,29.82,West,273,0.0,2.0,62,0.00,,,0.00,weatherlink.com 1.10,2013-07-25 01:10:00,
2013-07-24 21:25:00,69.9,58.0,29.83,West,273,0.0,2.0,65,0.00,,,0.00,weatherlink.com 1.10,2013-07-25 01:25:00,
2013-07-24 21:40:00,69.2,58.0,29.83,West,272,0.0,2.0,67,0.00,,,0.00,weatherlink.com 1.10,2013-07-25 01:40:00,
2013-07-24 21:55:00,68.8,58.0,29.84,West,271,0.0,3.0,68,0.00,,,0.00,weatherlink.com 1.10,2013-07-25 01:55:00,
2013-07-24 22:10:00,68.3,59.0,29.85,West,271,0.0,0.0,71,0.00,,,0.00,weatherlink.com 1.10,2013-07-25 02:10:00,
2013-07-24 22:25:00,67.6,59.0,29.86,West,271,0.0,0.0,73,0.00,,,0.00,weatherlink.com 1.10,2013-07-25 02:25:00,
2013-07-24 22:40:00,66.7,59.0,29.86,West,271,0.0,0.0,76,0.00,,,0.00,weatherlink.com 1.10,2013-07-25 02:40:00,
2013-07-24 22:55:00,65.6,59.0,29.86,West,271,0.0,1.0,78,0.00,,,0.00,weatherlink.com 1.10,2013-07-25 02:55:00,
2013-07-24 23:11:00,64.7,58.0,29.86,West,271,0.0,2.0,78,0.00,,,0.00,weatherlink.com 1.10,2013-07-25 03:11:00,
2013-07-24 23:41:00,64.5,58.0,29.86,West,276,0.0,0.0,80,0.00,,,0.00,weatherlink.com 1.10,2013-07-25 03:41:00,
2013-07-24 23:56:00,64.1,58.0,29.87,SSW,201,0.0,1.0,81,0.00,,,0.00,weatherlink.com 1.10,2013-07-25 03:56:00,